Time;durP1;ratioP1;P1;durP2;ratioP2;P2;SDS_P1;SDS_P2;PMS_P1;PMS_P2;Temp;Humidity;BMP_temperature;BMP_pressure;BME280_temperature;BME280_humidity;BME280_pressure;Samples;Min_cycle;Max_cycle;Signal;HPM_P1;HPM_P2
2024/01/26 00:01:38;;;;;;;;;;;;;;;11.54;46.04;101701.97;4923519;28;99665;-65
2024/01/26 00:04:04;;;;;;;;;;;;;;;11.54;46.02;101687.66;4927878;28;101069;-71
2024/01/26 00:06:30;;;;;;;;;;;;;;;11.55;45.93;101689.28;4942923;28;98056;-65
2024/01/26 00:08:56;;;;;;;;;;;;;;;11.54;45.85;101690.34;4921535;28;98264;-65
2024/01/26 00:11:23;;;;;;;;;;;;;;;11.54;46.02;101690.34;4923987;28;98038;-65
2024/01/26 00:13:49;;;;;;;;;;;;;;;11.54;46.06;101693.88;4924333;28;98096;-71
2024/01/26 00:16:15;;;;;;;;;;;;;;;11.54;45.96;101693.06;4920480;28;98109;-71
2024/01/26 00:18:41;;;;;;;;;;;;;;;11.54;45.96;101695.75;4934269;28;122067;-65
2024/01/26 00:21:07;;;;;;;;;;;;;;;11.55;46.01;101694.69;4934949;28;97971;-65
2024/01/26 00:23:35;;;;;;;;;;;;;;;11.54;46.19;101693.88;4938488;28;98078;-71
2024/01/26 00:26:01;;;;;;;;;;;;;;;11.54;45.92;101690.34;4918965;28;98351;-71
2024/01/26 00:28:27;;;;;;;;;;;;;;;11.53;46.02;101697.66;4923781;28;98936;-65
2024/01/26 00:30:53;;;;;;;;;;;;;;;11.52;46.00;101682.50;4954946;28;99019;-65
2024/01/26 00:33:19;;;;;;;;;;;;;;;11.53;45.85;101688.72;4925222;28;115271;-71
2024/01/26 00:35:45;;;;;;;;;;;;;;;11.52;46.00;101689.78;4921808;28;129581;-71
2024/01/26 00:38:11;;;;;;;;;;;;;;;11.51;46.05;101688.13;4948411;28;104109;-71
2024/01/26 00:40:37;;;;;;;;;;;;;;;11.51;45.94;101682.72;4925133;28;98136;-65
2024/01/26 00:43:03;;;;;;;;;;;;;;;11.49;45.93;101693.78;4945741;28;98681;-71
2024/01/26 00:45:29;;;;;;;;;;;;;;;11.49;45.93;101688.38;4926358;28;99052;-71
2024/01/26 00:47:55;;;;;;;;;;;;;;;11.51;46.09;101685.44;4924380;28;98276;-65
2024/01/26 00:50:21;;;;;;;;;;;;;;;11.50;46.20;101687.31;4925255;28;98147;-71
2024/01/26 00:52:47;;;;;;;;;;;;;;;11.49;45.83;101685.69;4929728;28;129241;-65
2024/01/26 00:55:13;;;;;;;;;;;;;;;11.49;45.86;101691.09;4924919;28;113550;-65
2024/01/26 00:57:39;;;;;;;;;;;;;;;11.50;46.06;101697.31;4928723;28;110245;-71
2024/01/26 01:00:07;;;;;;;;;;;;;;;11.48;46.11;101689.47;4930763;28;98517;-71
2024/01/26 01:02:33;;;;;;;;;;;;;;;11.48;45.95;101689.47;4927784;28;98270;-71
2024/01/26 01:05:00;;;;;;;;;;;;;;;11.48;46.09;101685.94;4941422;28;98308;-71
2024/01/26 01:07:26;;;;;;;;;;;;;;;11.47;45.90;101685.09;4942822;28;98080;-65
2024/01/26 01:09:52;;;;;;;;;;;;;;;11.46;45.90;101674.56;4939145;28;129162;-71
2024/01/26 01:12:18;;;;;;;;;;;;;;;11.45;46.04;101681.84;4925145;28;121598;-65
2024/01/26 01:14:44;;;;;;;;;;;;;;;11.46;46.04;101682.66;4929315;28;100176;-65
2024/01/26 01:17:11;;;;;;;;;;;;;;;11.45;46.01;101681.03;4937129;28;98020;-71
2024/01/26 01:19:37;;;;;;;;;;;;;;;11.44;46.01;101677.50;4924622;28;98070;-71
2024/01/26 01:22:03;;;;;;;;;;;;;;;11.45;45.94;101670.22;4948098;28;130327;-65
2024/01/26 01:24:29;;;;;;;;;;;;;;;11.45;45.98;101672.94;4923761;28;98030;-71
2024/01/26 01:26:55;;;;;;;;;;;;;;;11.43;45.60;101675.03;4929824;28;98168;-65
2024/01/26 01:29:21;;;;;;;;;;;;;;;11.43;45.98;101667.75;4945629;28;121180;-65
2024/01/26 01:31:47;;;;;;;;;;;;;;;11.43;45.99;101670.44;4926611;28;127743;-65
2024/01/26 01:34:13;;;;;;;;;;;;;;;11.42;45.99;101679.63;4926898;28;97987;-65
2024/01/26 01:36:39;;;;;;;;;;;;;;;11.42;45.95;101682.31;4938318;28;122142;-65
2024/01/26 01:39:07;;;;;;;;;;;;;;;11.43;46.02;101670.44;4920465;28;112388;-65
2024/01/26 01:41:33;;;;;;;;;;;;;;;11.41;46.09;101667.19;4940842;28;98433;-71
2024/01/26 01:43:59;;;;;;;;;;;;;;;11.41;46.03;101669.91;4922647;28;113189;-71
2024/01/26 01:46:26;;;;;;;;;;;;;;;11.41;46.01;101669.91;4938852;28;98331;-71
2024/01/26 01:48:52;;;;;;;;;;;;;;;11.41;46.02;101669.91;4925042;28;98027;-71
2024/01/26 01:51:18;;;;;;;;;;;;;;;11.40;45.94;101664.75;4926350;28;98881;-71
2024/01/26 01:53:44;;;;;;;;;;;;;;;11.41;46.05;101663.69;4943400;28;98736;-65
2024/01/26 01:56:11;;;;;;;;;;;;;;;11.40;46.03;101662.88;4926803;28;113247;-65
2024/01/26 01:58:39;;;;;;;;;;;;;;;11.40;46.02;101664.75;4925161;28;97938;-71
2024/01/26 02:01:05;;;;;;;;;;;;;;;11.38;45.88;101654.19;4936380;28;98500;-71
2024/01/26 02:03:31;;;;;;;;;;;;;;;11.38;45.94;101642.56;4923480;28;101433;-71
2024/01/26 02:05:57;;;;;;;;;;;;;;;11.34;45.98;101644.94;4942975;28;98081;-65
2024/01/26 02:08:23;;;;;;;;;;;;;;;11.33;45.96;101637.91;4923281;28;100572;-65
2024/01/26 02:10:49;;;;;;;;;;;;;;;11.33;46.08;101637.09;4934039;28;98530;-65
2024/01/26 02:13:15;;;;;;;;;;;;;;;11.30;45.95;101635.69;4928983;28;98116;-65
2024/01/26 02:15:41;;;;;;;;;;;;;;;11.28;45.99;101635.13;4922417;28;98018;-65
2024/01/26 02:18:07;;;;;;;;;;;;;;;11.27;46.05;101644.25;4921708;28;99470;-71
2024/01/26 02:20:33;;;;;;;;;;;;;;;11.26;46.00;101637.22;4922875;28;113718;-65
2024/01/26 02:22:59;;;;;;;;;;;;;;;11.23;46.05;101638.53;4946330;28;98286;-71
2024/01/26 02:25:25;;;;;;;;;;;;;;;11.21;46.08;101635.25;4938207;28;97952;-71
2024/01/26 02:27:52;;;;;;;;;;;;;;;11.20;45.95;101632.78;4925948;28;100128;-72
2024/01/26 02:30:18;;;;;;;;;;;;;;;11.17;46.06;101628.72;4937039;28;98868;-72
2024/01/26 02:32:44;;;;;;;;;;;;;;;11.15;45.92;101625.44;4926203;28;99615;-71
2024/01/26 02:35:11;;;;;;;;;;;;;;;11.12;45.94;101619.69;4925985;28;98389;-72
2024/01/26 02:37:37;;;;;;;;;;;;;;;11.09;46.02;101617.50;4937713;28;97864;-71
2024/01/26 02:40:03;;;;;;;;;;;;;;;11.06;45.95;101619.63;4939312;28;98682;-65
2024/01/26 02:42:29;;;;;;;;;;;;;;;11.02;45.93;101621.16;4935536;28;99461;-66
2024/01/26 02:44:55;;;;;;;;;;;;;;;11.02;46.22;101617.66;4921741;28;98079;-66
2024/01/26 02:47:21;;;;;;;;;;;;;;;11.00;45.85;101623.31;4933643;28;98788;-72
2024/01/26 02:49:47;;;;;;;;;;;;;;;10.98;46.13;101621.91;4923550;28;110659;-71
2024/01/26 02:52:13;;;;;;;;;;;;;;;10.96;45.90;101622.13;4938315;28;126862;-66
2024/01/26 02:54:39;;;;;;;;;;;;;;;10.94;46.23;101618.03;4918584;28;122295;-66
2024/01/26 02:57:05;;;;;;;;;;;;;;;10.93;45.96;101611.03;4927809;28;127292;-72
2024/01/26 02:59:31;;;;;;;;;;;;;;;10.90;45.73;101609.63;4928662;28;100015;-65
2024/01/26 03:01:57;;;;;;;;;;;;;;;10.87;46.18;101598.47;4928016;28;98249;-65
2024/01/26 03:04:23;;;;;;;;;;;;;;;10.87;45.95;101595.78;4940442;28;98403;-66
2024/01/26 03:06:50;;;;;;;;;;;;;;;10.84;46.00;101593.56;4934439;28;127667;-71
2024/01/26 03:09:17;;;;;;;;;;;;;;;10.80;46.26;101594.03;4945005;28;98203;-65
2024/01/26 03:11:43;;;;;;;;;;;;;;;10.79;45.76;101580.81;4921659;28;99434;-72
2024/01/26 03:14:09;;;;;;;;;;;;;;;10.76;46.34;101575.88;4941199;28;98066;-72
2024/01/26 03:16:35;;;;;;;;;;;;;;;10.76;46.17;101583.97;4920766;28;126997;-71
2024/01/26 03:19:01;;;;;;;;;;;;;;;10.73;46.20;101584.50;4938415;28;98220;-65
2024/01/26 03:21:28;;;;;;;;;;;;;;;10.70;46.20;101588.47;4928036;28;98253;-66
2024/01/26 03:23:54;;;;;;;;;;;;;;;10.69;46.01;101586.00;4927135;28;98025;-65
2024/01/26 03:26:20;;;;;;;;;;;;;;;10.66;45.96;101581.94;4922601;28;99552;-65
2024/01/26 03:28:47;;;;;;;;;;;;;;;10.66;46.01;101584.63;4923705;28;98531;-65
2024/01/26 03:31:13;;;;;;;;;;;;;;;10.64;46.10;101585.91;4925440;28;101058;-65
2024/01/26 03:33:40;;;;;;;;;;;;;;;10.62;46.21;101586.16;4932961;28;98408;-71
2024/01/26 03:36:07;;;;;;;;;;;;;;;10.61;46.08;101581.00;4920232;28;98282;-71
2024/01/26 03:38:33;;;;;;;;;;;;;;;10.59;45.97;101585.81;4921308;28;98584;-71
2024/01/26 03:41:00;;;;;;;;;;;;;;;10.57;45.88;101596.84;4921821;28;98110;-66
2024/01/26 03:43:26;;;;;;;;;;;;;;;10.55;46.01;101580.91;4941684;28;99486;-65
2024/01/26 03:45:52;;;;;;;;;;;;;;;10.53;46.01;101577.66;4937006;28;98101;-65
2024/01/26 03:48:18;;;;;;;;;;;;;;;10.52;46.35;101577.88;4932874;28;98091;-71
2024/01/26 03:50:44;;;;;;;;;;;;;;;10.50;46.27;101585.41;4927343;28;107192;-71
2024/01/26 03:53:10;;;;;;;;;;;;;;;10.48;46.18;101582.09;4934848;28;98089;-71
2024/01/26 03:55:37;;;;;;;;;;;;;;;10.45;46.35;101578.03;4937259;28;98285;-66
2024/01/26 03:58:04;;;;;;;;;;;;;;;10.43;46.03;101595.50;4939575;28;99026;-66
2024/01/26 04:00:30;;;;;;;;;;;;;;;10.38;45.91;101588.13;4934632;28;98839;-71
2024/01/26 04:02:56;;;;;;;;;;;;;;;10.34;46.08;101578.88;4938939;28;98207;-71
2024/01/26 04:05:22;;;;;;;;;;;;;;;10.32;46.06;101575.59;4921503;28;98080;-65
2024/01/26 04:07:48;;;;;;;;;;;;;;;10.30;45.80;101580.41;4927495;28;102661;-65
2024/01/26 04:10:14;;;;;;;;;;;;;;;10.27;45.75;101581.69;4921337;28;98315;-71
2024/01/26 04:12:40;;;;;;;;;;;;;;;10.26;46.01;101582.75;4940511;28;98161;-71
2024/01/26 04:15:06;;;;;;;;;;;;;;;10.26;46.10;101581.94;4945793;28;100186;-71
2024/01/26 04:17:32;;;;;;;;;;;;;;;10.24;46.28;101573.25;4949134;28;98422;-65
2024/01/26 04:19:58;;;;;;;;;;;;;;;10.24;45.87;101573.25;4946105;28;103170;-66
2024/01/26 04:22:24;;;;;;;;;;;;;;;10.22;46.26;101564.59;4946263;28;98348;-65
2024/01/26 04:24:51;;;;;;;;;;;;;;;10.21;46.03;101561.03;4937849;28;100846;-72
2024/01/26 04:27:17;;;;;;;;;;;;;;;10.22;45.96;101564.59;4925804;28;102748;-72
2024/01/26 04:29:43;;;;;;;;;;;;;;;10.21;45.84;101563.75;4937533;28;100746;-65
2024/01/26 04:32:09;;;;;;;;;;;;;;;10.20;46.01;101561.28;4941997;28;123768;-71
2024/01/26 04:34:37;;;;;;;;;;;;;;;10.20;46.23;101558.59;4925986;28;127832;-65
2024/01/26 04:37:04;;;;;;;;;;;;;;;10.20;45.72;101553.22;4940386;28;100349;-65
2024/01/26 04:39:30;;;;;;;;;;;;;;;10.19;45.66;101546.19;4940387;28;98115;-71
2024/01/26 04:41:56;;;;;;;;;;;;;;;10.19;45.88;101547.00;4926937;28;98150;-71
2024/01/26 04:44:22;;;;;;;;;;;;;;;10.18;45.64;101552.63;4943666;28;99664;-71
2024/01/26 04:46:48;;;;;;;;;;;;;;;10.19;46.05;101551.59;4930543;28;100109;-66
2024/01/26 04:49:15;;;;;;;;;;;;;;;10.19;45.63;101538.13;4925581;28;98431;-65
2024/01/26 04:51:41;;;;;;;;;;;;;;;10.19;45.87;101544.31;4938854;28;98020;-66
2024/01/26 04:54:07;;;;;;;;;;;;;;;10.18;45.79;101542.69;4926023;28;98377;-71
2024/01/26 04:56:33;;;;;;;;;;;;;;;10.19;45.96;101546.19;4927257;28;98140;-66
2024/01/26 04:58:59;;;;;;;;;;;;;;;10.19;45.91;101544.31;4940322;28;100536;-65
2024/01/26 05:01:26;;;;;;;;;;;;;;;10.19;45.93;101547.00;4938911;28;98161;-71
2024/01/26 05:03:52;;;;;;;;;;;;;;;10.19;45.96;101546.19;4923426;28;98395;-71
2024/01/26 05:06:18;;;;;;;;;;;;;;;10.19;46.20;101546.19;4923698;28;103393;-72
2024/01/26 05:08:44;;;;;;;;;;;;;;;10.19;45.85;101549.72;4925063;28;98013;-65
2024/01/26 05:11:10;;;;;;;;;;;;;;;10.18;45.90;101531.91;4925924;28;115649;-65
2024/01/26 05:13:36;;;;;;;;;;;;;;;10.18;45.96;101528.38;4939507;28;98343;-71
2024/01/26 05:16:03;;;;;;;;;;;;;;;10.17;45.98;101526.75;4923838;28;99780;-71
2024/01/26 05:18:29;;;;;;;;;;;;;;;10.18;45.64;101517.59;4925499;28;119166;-66
2024/01/26 05:20:55;;;;;;;;;;;;;;;10.17;45.66;101516.78;4940288;28;98130;-65
2024/01/26 05:23:22;;;;;;;;;;;;;;;10.16;45.83;101509.75;4941121;28;98251;-71
2024/01/26 05:25:48;;;;;;;;;;;;;;;10.15;46.18;101510.81;4942337;28;98833;-65
2024/01/26 05:28:14;;;;;;;;;;;;;;;10.17;45.65;101513.28;4942519;28;100006;-72
2024/01/26 05:30:40;;;;;;;;;;;;;;;10.16;45.88;101509.75;4941647;28;99395;-65
2024/01/26 05:33:06;;;;;;;;;;;;;;;10.17;45.93;101513.28;4924721;28;98336;-65
2024/01/26 05:35:33;;;;;;;;;;;;;;;10.16;45.85;101515.16;4923141;28;98387;-65
2024/01/26 05:37:59;;;;;;;;;;;;;;;10.14;45.55;101517.28;4927926;28;98156;-65
2024/01/26 05:40:25;;;;;;;;;;;;;;;10.15;45.91;101507.31;4929292;28;115194;-71
2024/01/26 05:42:51;;;;;;;;;;;;;;;10.14;46.17;101497.56;4927962;28;98090;-65
2024/01/26 05:45:17;;;;;;;;;;;;;;;10.13;46.21;101494.06;4917927;28;98276;-71
2024/01/26 05:47:43;;;;;;;;;;;;;;;10.14;45.58;101493.03;4917950;28;98410;-65
2024/01/26 05:50:09;;;;;;;;;;;;;;;10.13;46.15;101490.56;4936092;28;124651;-72
2024/01/26 05:52:35;;;;;;;;;;;;;;;10.14;46.17;101495.72;4922175;28;98189;-71
2024/01/26 05:55:01;;;;;;;;;;;;;;;10.15;45.61;101493.84;4927079;28;98409;-66
2024/01/26 05:57:27;;;;;;;;;;;;;;;10.18;45.54;101491.50;4923788;28;98810;-71
2024/01/26 05:59:53;;;;;;;;;;;;;;;10.20;45.83;101485.84;4938358;28;121857;-65
2024/01/26 06:02:19;;;;;;;;;;;;;;;10.24;45.99;101487.81;4925736;28;98076;-71
2024/01/26 06:04:45;;;;;;;;;;;;;;;10.29;45.97;101489.81;4938432;28;98772;-65
2024/01/26 06:07:12;;;;;;;;;;;;;;;10.33;46.18;101482.88;4934102;28;98211;-65
2024/01/26 06:09:39;;;;;;;;;;;;;;;10.37;45.77;101478.66;4924948;28;98278;-65
2024/01/26 06:12:05;;;;;;;;;;;;;;;10.43;46.04;101474.19;4922964;28;100415;-71
2024/01/26 06:14:31;;;;;;;;;;;;;;;10.49;45.61;101475.91;4934129;28;97965;-71
2024/01/26 06:16:57;;;;;;;;;;;;;;;10.52;46.19;101470.84;4934810;28;127045;-65
2024/01/26 06:19:23;;;;;;;;;;;;;;;10.59;45.74;101461.81;4916840;28;98352;-65
2024/01/26 06:21:49;;;;;;;;;;;;;;;10.62;45.72;101462.13;4925190;28;122017;-65
2024/01/26 06:24:15;;;;;;;;;;;;;;;10.66;46.02;101457.88;4935737;28;98800;-71
2024/01/26 06:26:41;;;;;;;;;;;;;;;10.71;45.91;101465.25;4914279;28;98275;-71
2024/01/26 06:29:07;;;;;;;;;;;;;;;10.76;45.84;101462.63;4933110;28;104686;-72
2024/01/26 06:31:33;;;;;;;;;;;;;;;10.82;45.73;101465.16;4937373;28;98454;-66
2024/01/26 06:33:59;;;;;;;;;;;;;;;10.95;45.99;101457.81;4937026;28;128515;-65
2024/01/26 06:36:25;;;;;;;;;;;;;;;11.06;45.80;101448.81;4932118;28;132490;-72
2024/01/26 06:38:51;;;;;;;;;;;;;;;11.17;45.70;101447.09;4929851;28;98083;-73
2024/01/26 06:41:17;;;;;;;;;;;;;;;11.25;45.67;101434.00;4935557;28;110730;-71
2024/01/26 06:43:50;;;;;;;;;;;;;;;11.33;45.48;101440.84;4912423;28;118580;-71
2024/01/26 06:46:21;;;;;;;;;;;;;;;11.41;45.78;101440.41;4918731;28;98137;-72
2024/01/26 06:48:47;;;;;;;;;;;;;;;11.50;45.94;101438.91;4935785;28;98269;-71
2024/01/26 06:51:13;;;;;;;;;;;;;;;11.55;45.70;101428.19;4925436;28;99967;-71
2024/01/26 06:53:39;;;;;;;;;;;;;;;11.62;45.80;101433.41;4920044;28;98733;-66
2024/01/26 06:56:06;;;;;;;;;;;;;;;11.67;45.69;101435.34;4920247;28;107633;-72
2024/01/26 06:58:32;;;;;;;;;;;;;;;11.71;45.73;101426.50;4920719;28;98393;-65
2024/01/26 07:00:59;;;;;;;;;;;;;;;11.76;45.83;101423.84;4921218;28;98946;-65
2024/01/26 07:03:25;;;;;;;;;;;;;;;11.80;46.05;101421.47;4918255;28;98337;-72
2024/01/26 07:05:51;;;;;;;;;;;;;;;11.85;45.74;101424.25;4953303;28;99575;-65
2024/01/26 07:08:17;;;;;;;;;;;;;;;11.91;45.68;101423.25;4934405;28;122172;-72
2024/01/26 07:10:43;;;;;;;;;;;;;;;11.95;45.73;101418.16;4924248;28;111661;-72
2024/01/26 07:13:09;;;;;;;;;;;;;;;12.01;45.80;101415.25;4919035;28;125051;-72
2024/01/26 07:15:35;;;;;;;;;;;;;;;12.07;45.53;101409.91;4924728;28;99220;-66
2024/01/26 07:18:01;;;;;;;;;;;;;;;12.12;45.65;101408.06;4923463;28;98569;-73
2024/01/26 07:20:28;;;;;;;;;;;;;;;12.17;45.58;101396.50;4936042;28;98820;-71
2024/01/26 07:22:55;;;;;;;;;;;;;;;12.22;45.89;101400.06;4924008;28;98368;-65
2024/01/26 07:25:24;;;;;;;;;;;;;;;12.24;45.69;101397.91;4917952;28;98129;-66
2024/01/26 07:27:50;;;;;;;;;;;;;;;12.28;45.70;101399.03;4934859;28;98603;-66
2024/01/26 07:30:18;;;;;;;;;;;;;;;12.31;45.72;101389.59;4913219;28;98027;-66
2024/01/26 07:32:44;;;;;;;;;;;;;;;12.35;45.80;101389.91;4919133;28;98297;-65
2024/01/26 07:35:11;;;;;;;;;;;;;;;12.38;45.80;101392.06;4918557;28;98174;-71
2024/01/26 07:37:37;;;;;;;;;;;;;;;12.42;45.80;101401.34;4916365;28;98314;-65
2024/01/26 07:40:04;;;;;;;;;;;;;;;12.43;45.70;101390.25;4917332;28;99966;-65
2024/01/26 07:42:31;;;;;;;;;;;;;;;12.49;45.69;101397.31;4930087;28;98624;-65
2024/01/26 07:44:57;;;;;;;;;;;;;;;12.53;45.68;101381.41;4921636;28;98073;-65
2024/01/26 07:47:24;;;;;;;;;;;;;;;12.59;45.72;101376.88;4915723;28;98463;-65
2024/01/26 07:49:50;;;;;;;;;;;;;;;12.63;45.48;101378.78;4923473;28;100286;-71
2024/01/26 07:52:16;;;;;;;;;;;;;;;12.70;45.40;101367.75;4935369;28;98192;-65
2024/01/26 07:54:42;;;;;;;;;;;;;;;12.78;45.78;101364.56;4918308;28;99177;-71
2024/01/26 07:57:08;;;;;;;;;;;;;;;12.86;45.70;101352.44;4921243;28;98009;-71
2024/01/26 07:59:35;;;;;;;;;;;;;;;12.90;45.47;101353.56;4930940;28;98274;-65
2024/01/26 08:02:01;;;;;;;;;;;;;;;12.95;45.48;101343.56;4922315;28;103602;-65
2024/01/26 08:04:27;;;;;;;;;;;;;;;13.02;45.28;101335.22;4925402;28;99506;-71
2024/01/26 08:06:52;;;;;;;;;;;;;;;13.08;45.60;101344.16;4932488;28;122794;-72
2024/01/26 08:09:19;;;;;;;;;;;;;;;13.12;45.69;101342.56;4948888;28;98472;-71
2024/01/26 08:11:45;;;;;;;;;;;;;;;13.15;45.77;101339.34;4918202;28;98452;-71
2024/01/26 08:14:11;;;;;;;;;;;;;;;13.18;45.41;101331.50;4932548;28;98436;-65
2024/01/26 08:16:37;;;;;;;;;;;;;;;13.24;45.61;101332.34;4920207;28;98632;-71
2024/01/26 08:19:03;;;;;;;;;;;;;;;13.37;45.28;101325.66;4919505;28;128001;-65
2024/01/26 08:21:29;;;;;;;;;;;;;;;13.50;45.26;101317.03;4919639;28;100351;-71
2024/01/26 08:23:55;;;;;;;;;;;;;;;13.65;45.23;101316.28;4933481;28;117527;-65
2024/01/26 08:26:21;;;;;;;;;;;;;;;13.98;45.16;101304.94;4932702;28;98046;-71
2024/01/26 08:28:47;;;;;;;;;;;;;;;14.22;44.79;101307.09;4934733;28;126594;-65
2024/01/26 08:31:13;;;;;;;;;;;;;;;14.20;45.02;101299.25;4929443;28;98276;-65
2024/01/26 08:33:40;;;;;;;;;;;;;;;14.23;45.24;101303.34;4921388;28;98068;-71
2024/01/26 08:36:06;;;;;;;;;;;;;;;14.26;45.20;101291.94;4917030;28;98206;-72
2024/01/26 08:38:32;;;;;;;;;;;;;;;14.30;45.24;101286.78;4939133;28;108291;-65
2024/01/26 08:40:58;;;;;;;;;;;;;;;14.32;45.36;101288.13;4930445;28;98424;-65
2024/01/26 08:43:24;;;;;;;;;;;;;;;14.34;45.27;101285.13;4951695;28;98185;-71
2024/01/26 08:45:50;;;;;;;;;;;;;;;14.36;45.41;101294.63;4917047;28;98386;-65
2024/01/26 08:48:16;;;;;;;;;;;;;;;14.40;45.30;101290.28;4912933;28;110635;-72
2024/01/26 08:50:43;;;;;;;;;;;;;;;14.44;45.09;101288.66;4917424;28;102830;-65
2024/01/26 08:53:10;;;;;;;;;;;;;;;14.49;45.32;101282.44;4930956;28;98665;-72
2024/01/26 08:55:36;;;;;;;;;;;;;;;14.51;45.27;101279.47;4917822;28;98662;-72
2024/01/26 08:58:02;;;;;;;;;;;;;;;14.51;45.49;101284.91;4932619;28;98823;-72
2024/01/26 09:00:28;;;;;;;;;;;;;;;14.54;45.33;101276.19;4921214;28;99622;-65
2024/01/26 09:02:54;;;;;;;;;;;;;;;14.61;45.31;101284.88;4933289;28;120206;-65
2024/01/26 09:05:20;;;;;;;;;;;;;;;14.68;44.99;101282.69;4940305;28;97971;-72
2024/01/26 09:07:46;;;;;;;;;;;;;;;14.71;45.03;101277.53;4939486;28;120962;-72
2024/01/26 09:10:12;;;;;;;;;;;;;;;14.71;45.28;101282.16;4920046;28;105541;-71
2024/01/26 09:12:38;;;;;;;;;;;;;;;14.69;45.36;101281.59;4917944;28;99029;-71
2024/01/26 09:15:04;;;;;;;;;;;;;;;14.67;45.35;101278.34;4920585;28;115525;-65
2024/01/26 09:17:30;;;;;;;;;;;;;;;14.61;45.44;101271.31;4921020;28;117707;-71
2024/01/26 09:19:56;;;;;;;;;;;;;;;14.58;45.36;101269.13;4922251;28;98144;-65
2024/01/26 09:22:23;;;;;;;;;;;;;;;14.58;45.71;101263.69;4921146;28;127625;-71
2024/01/26 09:24:49;;;;;;;;;;;;;;;14.57;45.66;101245.81;4921255;28;98272;-65
2024/01/26 09:27:15;;;;;;;;;;;;;;;14.57;45.58;101240.38;4940546;28;98623;-71
2024/01/26 09:29:41;;;;;;;;;;;;;;;14.59;45.54;101222.75;4920080;28;98907;-71
2024/01/26 09:32:07;;;;;;;;;;;;;;;14.64;45.24;101219.22;4920624;28;97907;-65
2024/01/26 09:34:33;;;;;;;;;;;;;;;14.65;45.58;101213.50;4935063;28;98244;-71
2024/01/26 09:36:59;;;;;;;;;;;;;;;14.65;45.53;101208.06;4924748;28;98923;-65
2024/01/26 09:39:25;;;;;;;;;;;;;;;14.65;45.56;101205.34;4925056;28;98407;-64
2024/01/26 09:41:51;;;;;;;;;;;;;;;14.66;45.71;101208.91;4922533;28;98232;-71
2024/01/26 09:44:17;;;;;;;;;;;;;;;14.64;45.57;101205.63;4920909;28;100008;-65
2024/01/26 09:46:43;;;;;;;;;;;;;;;14.62;45.62;101208.66;4925640;28;103082;-71
2024/01/26 09:49:09;;;;;;;;;;;;;;;14.60;45.50;101207.28;4922827;28;98372;-71
2024/01/26 09:51:35;;;;;;;;;;;;;;;14.59;45.63;101202.94;4920016;28;98981;-64
2024/01/26 09:54:02;;;;;;;;;;;;;;;14.59;45.70;101197.53;4932468;28;98799;-71
2024/01/26 09:56:28;;;;;;;;;;;;;;;14.59;45.27;101187.47;4939705;28;113792;-71
2024/01/26 09:58:54;;;;;;;;;;;;;;;14.61;45.70;101171.72;4922016;28;97864;-71
2024/01/26 10:01:21;;;;;;;;;;;;;;;14.69;45.59;101162.19;4934148;28;127386;-71
2024/01/26 10:03:47;;;;;;;;;;;;;;;14.78;45.27;101162.47;4923317;28;98168;-64
2024/01/26 10:06:13;;;;;;;;;;;;;;;14.84;45.42;101151.28;4932735;28;98247;-64
2024/01/26 10:08:40;;;;;;;;;;;;;;;14.89;45.33;101145.00;4951472;28;117061;-71
2024/01/26 10:11:06;;;;;;;;;;;;;;;15.12;44.99;101135.38;4920987;28;99119;-64
2024/01/26 10:13:32;;;;;;;;;;;;;;;15.42;44.87;101120.78;4938468;28;98833;-70
2024/01/26 10:16:09;;;;;;;;;;;;;;;15.66;44.87;101113.53;4933724;28;101846;-70
2024/01/26 10:18:43;;;;;;;;;;;;;;;15.79;44.71;101122.13;4920606;28;98046;-64
2024/01/26 10:21:12;;;;;;;;;;;;;;;15.75;44.92;101115.63;4921892;28;98241;-64
2024/01/26 10:23:39;;;;;;;;;;;;;;;15.74;44.97;101108.59;4921873;28;98277;-64
2024/01/26 10:26:05;;;;;;;;;;;;;;;15.77;44.94;101108.81;4922277;28;111535;-71
2024/01/26 10:28:31;;;;;;;;;;;;;;;15.88;44.97;101091.31;4935349;28;99255;-72
2024/01/26 10:30:57;;;;;;;;;;;;;;;16.09;44.83;101083.75;4937877;28;99855;-71
2024/01/26 10:33:23;;;;;;;;;;;;;;;16.33;44.79;101080.22;4921065;28;98513;-71
2024/01/26 10:35:51;;;;;;;;;;;;;;;16.52;44.50;101074.81;4950059;28;98178;-64
2024/01/26 10:38:17;;;;;;;;;;;;;;;16.75;44.39;101065.00;4949496;28;98276;-71
2024/01/26 10:40:44;;;;;;;;;;;;;;;16.78;44.47;101062.50;4934564;28;99380;-64
2024/01/26 10:43:13;;;;;;;;;;;;;;;16.66;44.67;101062.06;4916914;28;98819;-64
2024/01/26 10:45:39;;;;;;;;;;;;;;;16.61;44.62;101060.25;4917999;28;98161;-64
2024/01/26 10:48:06;;;;;;;;;;;;;;;16.67;44.78;101044.66;4920538;28;99235;-64
2024/01/26 10:50:32;;;;;;;;;;;;;;;16.81;44.59;101045.56;4939253;28;99321;-71
2024/01/26 10:52:58;;;;;;;;;;;;;;;16.84;44.77;101038.72;4924408;28;98646;-71
2024/01/26 10:55:26;;;;;;;;;;;;;;;16.80;44.82;101033.06;4939205;28;98671;-64
2024/01/26 10:57:52;;;;;;;;;;;;;;;16.64;44.99;101034.34;4935470;28;100835;-71
2024/01/26 11:00:18;;;;;;;;;;;;;;;16.44;45.29;101040.88;4920905;28;98127;-64
2024/01/26 11:02:44;;;;;;;;;;;;;;;16.34;45.38;101033.66;4924551;28;98352;-64
2024/01/26 11:05:11;;;;;;;;;;;;;;;16.23;45.36;101031.34;4937847;28;102299;-72
2024/01/26 11:07:38;;;;;;;;;;;;;;;16.10;45.40;101024.72;4922147;28;98348;-65
2024/01/26 11:10:06;;;;;;;;;;;;;;;15.99;45.41;101023.22;4931458;28;99077;-71
2024/01/26 11:12:34;;;;;;;;;;;;;;;15.89;45.43;101010.56;4936240;28;98374;-65
2024/01/26 11:15:09;;;;;;;;;;;;;;;15.90;45.49;101006.75;4921426;28;98724;-71
2024/01/26 11:18:03;;;;;;;;;;;;;;;15.83;45.47;101014.44;4951803;28;99781;-71
2024/01/26 11:20:35;;;;;;;;;;;;;;;15.75;45.47;101006.91;4947304;28;98367;-70
2024/01/26 11:23:14;;;;;;;;;;;;;;;15.78;45.55;100993.56;4935692;28;98341;-64
2024/01/26 11:25:53;;;;;;;;;;;;;;;15.81;45.43;101001.16;4918984;28;98521;-71
2024/01/26 11:28:25;;;;;;;;;;;;;;;15.78;45.45;100982.69;4949826;28;98843;-71
2024/01/26 11:30:57;;;;;;;;;;;;;;;15.81;45.48;100981.31;4918941;28;98263;-71
2024/01/26 11:33:23;;;;;;;;;;;;;;;15.88;45.47;100973.63;4918724;28;98087;-71
2024/01/26 11:35:49;;;;;;;;;;;;;;;15.91;45.25;100965.66;4930473;28;99617;-71
2024/01/26 11:38:18;;;;;;;;;;;;;;;15.98;45.45;100981.63;4934063;28;98344;-64
2024/01/26 11:40:45;;;;;;;;;;;;;;;15.97;45.46;100973.78;4935089;28;99512;-64
2024/01/26 11:43:11;;;;;;;;;;;;;;;15.90;45.53;100964.06;4920013;28;98624;-65
2024/01/26 11:45:44;;;;;;;;;;;;;;;15.86;45.35;100954.06;4933978;28;130366;-71
2024/01/26 11:48:11;;;;;;;;;;;;;;;15.85;45.46;100933.44;4937142;28;98161;-71
2024/01/26 11:50:37;;;;;;;;;;;;;;;15.88;45.44;100922.78;4922394;28;98910;-71
2024/01/26 11:53:05;;;;;;;;;;;;;;;15.94;45.06;100918.88;4919229;28;98657;-71
2024/01/26 11:55:31;;;;;;;;;;;;;;;15.99;45.44;100903.59;4950823;28;98142;-71
2024/01/26 11:57:58;;;;;;;;;;;;;;;16.02;45.38;100905.75;4930090;28;98311;-65
2024/01/26 12:00:23;;;;;;;;;;;;;;;16.01;45.36;100902.22;4918694;28;98039;-64
2024/01/26 12:02:49;;;;;;;;;;;;;;;16.00;45.34;100891.66;4919789;28;110479;-71
2024/01/26 12:05:19;;;;;;;;;;;;;;;15.96;45.38;100866.94;4921776;28;119513;-65
2024/01/26 12:07:45;;;;;;;;;;;;;;;15.91;45.63;100865.09;4936274;28;98220;-64
2024/01/26 12:10:14;;;;;;;;;;;;;;;15.89;45.41;100858.34;4922777;28;98397;-64
2024/01/26 12:12:41;;;;;;;;;;;;;;;15.86;45.65;100850.78;4923152;28;99349;-71
2024/01/26 12:15:08;;;;;;;;;;;;;;;15.83;45.62;100843.19;4938022;28;98236;-65
2024/01/26 12:17:34;;;;;;;;;;;;;;;15.81;45.60;100834.53;4936608;28;106115;-74
2024/01/26 12:20:00;;;;;;;;;;;;;;;15.77;45.63;100830.81;4935472;28;99310;-71
2024/01/26 12:22:27;;;;;;;;;;;;;;;15.73;45.56;100829.78;4923214;28;98150;-71
2024/01/26 12:24:53;;;;;;;;;;;;;;;15.70;45.56;100833.88;4922812;28;98964;-65
2024/01/26 12:27:19;;;;;;;;;;;;;;;15.65;45.74;100839.38;4920261;28;98206;-71
2024/01/26 12:29:45;;;;;;;;;;;;;;;15.59;45.80;100833.16;4933639;28;120169;-71